Time;durP1;ratioP1;P1;durP2;ratioP2;P2;SDS_P1;SDS_P2;PMS_P1;PMS_P2;Temp;Humidity;BMP_temperature;BMP_pressure;BME280_temperature;BME280_humidity;BME280_pressure;Samples;Min_cycle;Max_cycle;Signal;HPM_P1;HPM_P2
2023/03/15 00:00:42;;;;;;;2.80;2.40;;;;;;;7.81;55.29;97018.84;5056295;28;20217;-67
2023/03/15 00:03:08;;;;;;;6.20;2.40;;;;;;;7.82;55.15;97034.34;5052238;28;20234;-68
2023/03/15 00:05:34;;;;;;;2.80;2.40;;;;;;;7.72;54.41;97030.91;5051571;28;20175;-68
2023/03/15 00:08:00;;;;;;;2.57;2.37;;;;;;;7.84;54.12;97036.81;5050768;28;20460;-68
2023/03/15 00:10:27;;;;;;;4.27;2.83;;;;;;;7.79;54.45;97047.69;5052024;28;20840;-68
2023/03/15 00:12:52;;;;;;;3.33;2.40;;;;;;;7.82;54.89;97057.81;5057508;28;20420;-68
2023/03/15 00:15:18;;;;;;;3.80;2.70;;;;;;;7.89;54.78;97076.34;5055832;28;20417;-68
2023/03/15 00:17:44;;;;;;;3.30;3.00;;;;;;;7.92;54.10;97072.66;5051976;28;20727;-69
2023/03/15 00:20:10;;;;;;;3.30;3.00;;;;;;;7.86;54.62;97086.25;5051832;28;20203;-68
2023/03/15 00:22:36;;;;;;;3.90;2.60;;;;;;;7.83;54.30;97082.97;5050504;28;20239;-69
2023/03/15 00:25:02;;;;;;;3.87;2.90;;;;;;;7.86;54.41;97086.25;5052274;28;20963;-68
2023/03/15 00:27:27;;;;;;;3.90;3.07;;;;;;;7.83;54.46;97092.59;5051668;28;20211;-69
2023/03/15 00:29:52;;;;;;;3.80;2.60;;;;;;;7.88;54.34;97089.56;5051119;28;20214;-70
2023/03/15 00:32:18;;;;;;;8.20;3.30;;;;;;;7.80;53.98;97091.09;5051510;28;20195;-69
2023/03/15 00:34:47;;;;;;;4.77;3.43;;;;;;;7.87;54.21;97095.72;5056516;28;20183;-69
2023/03/15 00:37:18;;;;;;;5.53;3.37;;;;;;;7.83;54.41;97108.25;5044953;28;20195;-68
2023/03/15 00:39:45;;;;;;;6.50;2.90;;;;;;;7.79;53.97;97104.25;5040347;28;20418;-68
2023/03/15 00:42:14;;;;;;;7.63;3.23;;;;;;;7.89;54.93;97106.88;5059363;28;21003;-67
2023/03/15 00:44:44;;;;;;;3.93;3.00;;;;;;;7.86;53.97;97113.19;5054256;28;20429;-67
2023/03/15 00:47:10;;;;;;;4.60;3.10;;;;;;;7.92;54.44;97117.03;5044051;28;20535;-68
2023/03/15 00:49:35;;;;;;;6.57;3.30;;;;;;;7.84;54.18;97115.91;5050953;28;20508;-67
2023/03/15 00:52:01;;;;;;;7.40;3.77;;;;;;;7.91;54.01;97131.03;5059288;28;21263;-68
2023/03/15 00:54:26;;;;;;;4.90;2.70;;;;;;;7.80;54.07;97135.44;5051288;28;20680;-67
2023/03/15 00:56:51;;;;;;;7.20;3.47;;;;;;;7.81;53.89;97138.84;5046193;28;20235;-67
2023/03/15 00:59:17;;;;;;;5.97;3.73;;;;;;;7.80;53.82;97148.47;5051198;28;20183;-68
2023/03/15 01:01:43;;;;;;;8.53;3.53;;;;;;;7.78;53.71;97144.34;5053907;28;20183;-68
2023/03/15 01:04:11;;;;;;;4.90;3.20;;;;;;;7.76;53.78;97152.31;5061682;28;20199;-67
2023/03/15 01:06:37;;;;;;;8.50;3.70;;;;;;;7.78;54.36;97147.78;5058896;28;20512;-67
2023/03/15 01:09:04;;;;;;;5.50;3.40;;;;;;;7.73;53.95;97159.59;5050993;28;20504;-67
2023/03/15 01:11:30;;;;;;;5.57;3.50;;;;;;;7.76;54.40;97159.28;5050343;28;20182;-67
2023/03/15 01:13:57;;;;;;;6.30;3.40;;;;;;;7.70;53.98;97163.28;5057946;28;20425;-67
2023/03/15 01:16:24;;;;;;;4.40;2.93;;;;;;;7.67;54.44;97160.97;5056112;28;20185;-67
2023/03/15 01:18:53;;;;;;;7.77;3.23;;;;;;;7.57;54.80;97157.47;5051889;28;20527;-69
2023/03/15 01:21:20;;;;;;;9.63;3.60;;;;;;;7.64;54.29;97169.84;5047738;28;20422;-68
2023/03/15 01:23:45;;;;;;;4.40;2.63;;;;;;;7.64;53.88;97167.25;5050579;28;20480;-68
2023/03/15 01:26:13;;;;;;;9.70;3.13;;;;;;;7.51;53.81;97172.72;5055336;28;20946;-68
2023/03/15 01:28:38;;;;;;;3.80;2.30;;;;;;;7.55;53.92;97175.06;5050042;28;20199;-69
2023/03/15 01:31:04;;;;;;;4.83;3.00;;;;;;;7.51;53.75;97167.50;5050329;28;20475;-66
2023/03/15 01:33:29;;;;;;;4.10;2.40;;;;;;;7.56;53.73;97171.50;5050153;28;20199;-67
2023/03/15 01:36:01;;;;;;;4.97;3.00;;;;;;;7.48;53.77;97173.00;5041247;28;20217;-68
2023/03/15 01:38:27;;;;;;;8.07;2.43;;;;;;;7.45;53.43;97172.44;5053807;28;20248;-66
2023/03/15 01:40:52;;;;;;;3.47;2.23;;;;;;;7.39;53.70;97186.84;5047782;28;20430;-69
2023/03/15 01:43:20;;;;;;;4.73;2.30;;;;;;;7.44;53.80;97186.44;5044968;28;20525;-68
2023/03/15 01:46:00;;;;;;;5.00;2.40;;;;;;;7.40;53.39;97188.50;5048026;28;20278;-68
2023/03/15 01:48:43;;;;;;;4.53;2.30;;;;;;;7.44;53.00;97187.25;5049708;28;20433;-68
2023/03/15 01:51:23;;;;;;;5.50;2.40;;;;;;;7.40;53.32;97188.50;5041120;28;20417;-68
2023/03/15 01:54:18;;;;;;;4.70;2.20;;;;;;;7.37;53.33;97194.78;5042109;28;20409;-68
2023/03/15 01:57:01;;;;;;;5.87;2.10;;;;;;;7.34;53.18;97191.59;5052267;28;20863;-68
2023/03/15 01:59:30;;;;;;;5.47;1.80;;;;;;;7.32;53.26;97203.94;5038534;28;20425;-68
2023/03/15 02:01:56;;;;;;;5.37;1.87;;;;;;;7.22;52.88;97204.75;5040960;28;20433;-67
2023/03/15 02:04:27;;;;;;;4.60;2.17;;;;;;;7.17;53.36;97200.88;5036122;28;20965;-67
2023/03/15 02:06:57;;;;;;;7.27;2.10;;;;;;;7.11;52.77;97210.03;5051182;28;20194;-69
2023/03/15 02:09:28;;;;;;;4.90;2.20;;;;;;;7.21;53.38;97207.50;5042433;28;20790;-67
2023/03/15 02:11:54;;;;;;;4.03;1.87;;;;;;;7.25;53.12;97208.03;5046775;28;20995;-68
2023/03/15 02:14:21;;;;;;;7.13;1.90;;;;;;;7.05;52.51;97218.41;5058406;28;20413;-68
2023/03/15 02:16:47;;;;;;;6.47;2.03;;;;;;;7.02;53.04;97223.88;5050698;28;20432;-66
2023/03/15 02:19:30;;;;;;;5.17;2.10;;;;;;;7.04;52.43;97227.97;5050206;28;20564;-70
2023/03/15 02:22:18;;;;;;;2.67;1.90;;;;;;;7.06;52.82;97228.69;5045305;28;20581;-69
2023/03/15 02:25:05;;;;;;;6.70;3.23;;;;;;;6.98;52.75;97219.84;5048569;28;20433;-67
2023/03/15 02:27:35;;;;;;;18.87;7.10;;;;;;;6.95;51.89;97227.91;5045255;28;20524;-68
2023/03/15 02:30:02;;;;;;;6.43;2.50;;;;;;;6.69;52.98;97234.38;5060635;28;20421;-68
2023/03/15 02:32:29;;;;;;;11.23;4.60;;;;;;;6.69;52.48;97239.56;5047891;28;20436;-68
2023/03/15 02:34:54;;;;;;;3.10;1.90;;;;;;;6.72;52.49;97244.53;5045899;28;20432;-68
2023/03/15 02:37:20;;;;;;;4.77;1.67;;;;;;;6.55;52.53;97250.31;5063037;28;20432;-67
2023/03/15 02:39:46;;;;;;;4.70;2.03;;;;;;;6.59;53.50;97259.53;5050288;28;20663;-66
2023/03/15 02:42:11;;;;;;;5.17;1.97;;;;;;;6.48;52.63;97262.19;5046662;28;20179;-67
2023/03/15 02:44:39;;;;;;;4.20;1.70;;;;;;;6.59;52.28;97262.94;5053337;28;20278;-67
2023/03/15 02:47:11;;;;;;;4.40;1.73;;;;;;;6.64;52.86;97264.34;5042490;28;20293;-68
2023/03/15 02:49:40;;;;;;;3.23;1.57;;;;;;;6.69;51.99;97275.19;5045533;28;20417;-69
2023/03/15 02:52:06;;;;;;;9.47;1.70;;;;;;;6.74;52.12;97273.06;5044151;28;20439;-68
2023/03/15 02:54:33;;;;;;;3.00;1.57;;;;;;;6.73;52.14;97279.22;5060606;28;20792;-68
2023/03/15 02:57:00;;;;;;;4.30;1.30;;;;;;;6.66;53.22;97278.88;5057924;28;20229;-69
2023/03/15 02:59:25;;;;;;;5.90;1.90;;;;;;;6.71;52.93;97281.13;5056596;28;20463;-66
2023/03/15 03:01:51;;;;;;;5.93;1.97;;;;;;;6.68;52.17;97289.19;5046617;28;20906;-68
2023/03/15 03:04:16;;;;;;;4.00;1.47;;;;;;;6.68;52.46;97291.81;5048179;28;20194;-66
2023/03/15 03:06:42;;;;;;;6.27;2.00;;;;;;;6.53;51.65;97299.91;5051945;28;20214;-68
2023/03/15 03:09:09;;;;;;;2.43;1.80;;;;;;;6.65;51.73;97305.06;5048603;28;20282;-67
2023/03/15 03:11:35;;;;;;;7.60;3.40;;;;;;;6.63;51.54;97306.97;5047220;28;20418;-68
2023/03/15 03:14:00;;;;;;;7.53;3.33;;;;;;;6.56;52.27;97312.66;5052715;28;20467;-67
2023/03/15 03:16:26;;;;;;;4.30;2.53;;;;;;;6.61;52.61;97320.13;5048621;28;20191;-68
2023/03/15 03:18:51;;;;;;;9.60;2.67;;;;;;;6.55;52.37;97325.81;5054581;28;20930;-67
2023/03/15 03:21:17;;;;;;;5.53;1.77;;;;;;;6.58;52.21;97322.97;5042683;28;20841;-67
2023/03/15 03:23:45;;;;;;;4.47;1.67;;;;;;;6.61;52.02;97326.16;5039997;28;20195;-68
2023/03/15 03:26:15;;;;;;;10.30;1.87;;;;;;;6.59;52.33;97335.84;5051925;28;20262;-67
2023/03/15 03:28:42;;;;;;;4.87;1.57;;;;;;;6.59;52.52;97342.88;5054656;28;20440;-67
2023/03/15 03:31:15;;;;;;;13.13;2.73;;;;;;;6.51;52.16;97340.03;5046570;28;20420;-67
2023/03/15 03:33:40;;;;;;;6.37;1.90;;;;;;;6.51;52.89;97343.47;5048637;28;20421;-67
2023/03/15 03:36:06;;;;;;;4.90;2.20;;;;;;;6.57;52.67;97350.78;5047583;28;20469;-68
2023/03/15 03:38:31;;;;;;;4.40;1.90;;;;;;;6.64;52.15;97355.50;5048617;28;20196;-66
2023/03/15 03:40:57;;;;;;;5.60;2.13;;;;;;;6.44;51.59;97350.94;5046936;28;20187;-69
2023/03/15 03:43:22;;;;;;;4.13;1.80;;;;;;;6.55;52.00;97351.88;5057009;28;20591;-68
2023/03/15 03:45:47;;;;;;;3.47;1.27;;;;;;;6.48;52.20;97354.13;5051300;28;20178;-69
2023/03/15 03:48:13;;;;;;;10.90;3.20;;;;;;;6.51;52.26;97356.50;5042380;28;20213;-67
2023/03/15 03:50:38;;;;;;;4.20;1.70;;;;;;;6.48;52.68;97361.94;5043345;28;20259;-68
2023/03/15 03:53:04;;;;;;;6.60;2.07;;;;;;;6.42;53.08;97367.66;5055636;28;20207;-68
2023/03/15 03:55:32;;;;;;;6.43;2.00;;;;;;;6.51;52.89;97374.72;5042373;28;20179;-68
2023/03/15 03:57:58;;;;;;;6.20;1.93;;;;;;;6.38;52.94;97372.25;5048110;28;20686;-68
2023/03/15 04:00:23;;;;;;;3.17;1.87;;;;;;;6.32;52.81;97377.97;5038651;28;20430;-68
2023/03/15 04:02:52;;;;;;;7.63;2.20;;;;;;;6.38;52.55;97380.06;5047551;28;20240;-67
2023/03/15 04:05:18;;;;;;;4.20;1.90;;;;;;;6.41;52.60;97389.44;5049460;28;20187;-68
2023/03/15 04:07:44;;;;;;;6.03;2.17;;;;;;;6.44;52.10;97390.00;5048172;28;20518;-67
2023/03/15 04:10:13;;;;;;;5.80;1.80;;;;;;;6.47;52.48;97391.53;5055878;28;20598;-68
2023/03/15 04:12:41;;;;;;;7.70;2.23;;;;;;;6.41;52.26;97402.44;5045802;28;20182;-68
2023/03/15 04:15:06;;;;;;;4.63;1.97;;;;;;;6.37;51.75;97406.22;5033748;28;20432;-68
2023/03/15 04:17:32;;;;;;;6.20;2.20;;;;;;;6.34;51.79;97411.66;5034352;28;20541;-67
2023/03/15 04:19:58;;;;;;;6.10;2.30;;;;;;;6.34;51.67;97416.88;5040240;28;20215;-69
2023/03/15 04:22:23;;;;;;;4.90;2.17;;;;;;;6.33;51.65;97417.81;5038315;28;20200;-67
2023/03/15 04:24:49;;;;;;;4.00;2.50;;;;;;;6.35;51.72;97418.53;5040947;28;20219;-69
2023/03/15 04:27:15;;;;;;;9.23;2.40;;;;;;;6.34;51.92;97417.72;5049727;28;20285;-68
2023/03/15 04:29:42;;;;;;;6.20;2.90;;;;;;;6.32;53.01;97429.19;5047482;28;20182;-66
2023/03/15 04:32:08;;;;;;;4.80;2.83;;;;;;;6.36;53.29;97425.41;5028276;28;20195;-68
2023/03/15 04:34:37;;;;;;;4.87;3.13;;;;;;;6.27;53.15;97427.78;5052642;28;20413;-68
2023/03/15 04:37:04;;;;;;;3.23;2.60;;;;;;;6.25;53.24;97432.28;5031357;28;20443;-68
2023/03/15 04:39:29;;;;;;;5.40;3.40;;;;;;;6.21;53.26;97423.03;5049636;28;20418;-68
2023/03/15 04:41:54;;;;;;;4.63;2.50;;;;;;;6.14;53.88;97427.09;5040152;28;20807;-66
2023/03/15 04:44:20;;;;;;;5.83;2.90;;;;;;;6.16;53.87;97440.81;5037175;28;20231;-66
2023/03/15 04:46:45;;;;;;;8.10;2.90;;;;;;;6.10;54.06;97433.47;5049471;28;20179;-67
2023/03/15 04:49:11;;;;;;;7.57;2.97;;;;;;;6.16;52.82;97446.00;5055413;28;20206;-68
2023/03/15 04:51:37;;;;;;;8.17;3.50;;;;;;;5.99;52.44;97440.31;5054383;28;20201;-66
2023/03/15 04:54:02;;;;;;;6.53;3.00;;;;;;;6.03;52.47;97437.50;5050644;28;20174;-68
2023/03/15 04:56:28;;;;;;;8.10;2.87;;;;;;;6.08;51.99;97431.00;5039727;28;20194;-67
2023/03/15 04:58:54;;;;;;;7.83;3.30;;;;;;;6.15;52.03;97434.75;5049652;28;20195;-67
2023/03/15 05:01:22;;;;;;;4.77;2.70;;;;;;;6.18;51.91;97431.09;5044447;28;20962;-67
2023/03/15 05:03:47;;;;;;;4.90;2.93;;;;;;;6.15;52.85;97433.94;5048248;28;20202;-68
2023/03/15 05:06:12;;;;;;;6.47;3.00;;;;;;;5.99;53.15;97429.91;5040803;28;20421;-68
2023/03/15 05:08:38;;;;;;;6.83;4.20;;;;;;;6.07;52.25;97428.47;5045426;28;20238;-67
2023/03/15 05:11:04;;;;;;;10.70;3.00;;;;;;;6.03;52.40;97427.91;5045579;28;20270;-67
2023/03/15 05:13:29;;;;;;;3.90;2.70;;;;;;;6.03;51.98;97433.09;5041575;28;20548;-68
2023/03/15 05:15:55;;;;;;;7.87;3.43;;;;;;;6.02;52.66;97430.63;5044816;28;20748;-67
2023/03/15 05:18:20;;;;;;;5.43;3.30;;;;;;;6.01;52.38;97436.78;5042776;28;20254;-67
2023/03/15 05:20:46;;;;;;;11.67;3.37;;;;;;;6.03;52.48;97430.50;5044947;28;20182;-67
2023/03/15 05:23:12;;;;;;;9.07;5.47;;;;;;;6.04;52.81;97428.75;5049498;28;20191;-68
2023/03/15 05:25:38;;;;;;;8.03;5.80;;;;;;;5.94;53.25;97429.41;5040855;28;20172;-67
2023/03/15 05:28:04;;;;;;;17.03;10.50;;;;;;;5.89;54.13;97435.91;5044597;28;20450;-68
2023/03/15 05:30:30;;;;;;;56.50;28.83;;;;;;;5.83;54.57;97445.84;5050247;28;20183;-67
2023/03/15 05:32:56;;;;;;;69.17;33.40;;;;;;;5.76;54.39;97436.03;5052249;28;20471;-68
2023/03/15 05:35:25;;;;;;;55.70;27.67;;;;;;;5.78;53.95;97436.72;5037040;28;20514;-68
2023/03/15 05:37:54;;;;;;;50.83;24.90;;;;;;;5.80;54.16;97443.47;5046594;28;20290;-68
2023/03/15 05:40:19;;;;;;;18.37;9.53;;;;;;;5.87;53.36;97445.59;5042369;28;20820;-67
2023/03/15 05:42:45;;;;;;;10.53;4.17;;;;;;;5.81;52.03;97447.72;5061588;28;20493;-67
2023/03/15 05:45:11;;;;;;;4.80;3.20;;;;;;;5.55;51.95;97452.28;5055265;28;20666;-67
2023/03/15 05:47:36;;;;;;;11.27;4.10;;;;;;;5.77;51.87;97453.28;5049053;28;20190;-67
2023/03/15 05:50:02;;;;;;;8.90;3.60;;;;;;;5.87;51.31;97449.03;5041408;28;20179;-68
2023/03/15 05:52:27;;;;;;;7.03;3.77;;;;;;;5.85;50.87;97448.31;5033825;28;20179;-67
2023/03/15 05:54:53;;;;;;;12.20;3.63;;;;;;;5.50;51.91;97457.81;5034849;28;20176;-67
2023/03/15 05:57:18;;;;;;;9.33;3.30;;;;;;;5.56;52.35;97453.94;5050014;28;20337;-69
2023/03/15 05:59:44;;;;;;;7.80;3.13;;;;;;;5.67;51.90;97459.16;5047749;28;20203;-68
2023/03/15 06:02:09;;;;;;;10.00;4.17;;;;;;;5.79;51.89;97457.41;5036276;28;20207;-68
2023/03/15 06:04:36;;;;;;;5.63;3.17;;;;;;;5.94;51.88;97449.41;5043999;28;20214;-69
2023/03/15 06:07:02;;;;;;;8.03;4.10;;;;;;;6.38;50.94;97452.16;5045355;28;20214;-68
2023/03/15 06:09:27;;;;;;;12.30;3.20;;;;;;;6.73;50.65;97453.75;5039960;28;20415;-68
2023/03/15 06:11:53;;;;;;;5.37;3.03;;;;;;;7.14;49.67;97453.97;5045070;28;20167;-67
2023/03/15 06:14:18;;;;;;;10.57;3.43;;;;;;;7.26;48.34;97458.19;5058009;28;20175;-67
2023/03/15 06:16:44;;;;;;;4.87;3.30;;;;;;;7.33;48.67;97464.56;5039457;28;20256;-68
2023/03/15 06:19:09;;;;;;;8.20;3.70;;;;;;;7.31;48.25;97466.47;5034777;28;20210;-68
2023/03/15 06:21:34;;;;;;;6.70;3.93;;;;;;;7.27;48.87;97466.84;5045250;28;20269;-68
2023/03/15 06:24:00;;;;;;;7.63;3.40;;;;;;;7.27;48.83;97462.44;5028339;28;20793;-71
2023/03/15 06:26:25;;;;;;;7.17;3.93;;;;;;;7.30;48.56;97471.81;5032839;28;20244;-68
2023/03/15 06:28:51;;;;;;;7.30;3.40;;;;;;;7.36;48.17;97471.31;5031804;28;20211;-69
2023/03/15 06:31:16;;;;;;;7.33;3.33;;;;;;;7.36;48.73;97471.31;5031464;28;20194;-68
2023/03/15 06:33:42;;;;;;;7.70;3.37;;;;;;;7.43;48.39;97482.91;5029336;28;20679;-69
2023/03/15 06:36:07;;;;;;;7.67;3.63;;;;;;;7.50;48.56;97476.22;5031665;28;20183;-69
2023/03/15 06:38:33;;;;;;;9.57;3.60;;;;;;;7.59;48.28;97487.69;5036147;28;20698;-69
2023/03/15 06:41:03;;;;;;;6.80;3.27;;;;;;;7.64;48.30;97482.09;5046578;28;20174;-69
2023/03/15 06:43:29;;;;;;;8.00;3.17;;;;;;;7.66;47.82;97485.41;5049211;28;20216;-69
2023/03/15 06:45:57;;;;;;;7.80;3.30;;;;;;;7.78;47.61;97476.56;5042112;28;20432;-68
2023/03/15 06:48:22;;;;;;;10.57;3.60;;;;;;;7.77;48.02;97482.72;5047991;28;20433;-69
2023/03/15 06:50:48;;;;;;;23.73;12.60;;;;;;;7.93;48.02;97487.47;5031598;28;20429;-69
2023/03/15 06:53:14;;;;;;;8.83;3.80;;;;;;;8.00;47.75;97495.63;5037228;28;20393;-68
2023/03/15 06:55:39;;;;;;;12.50;4.10;;;;;;;8.14;46.80;97492.69;5038060;28;20668;-69
2023/03/15 06:58:05;;;;;;;12.83;4.50;;;;;;;8.09;47.27;97487.00;5040940;28;20438;-70
2023/03/15 07:00:30;;;;;;;17.97;3.40;;;;;;;8.21;46.32;97486.91;5043024;28;20226;-69
2023/03/15 07:02:56;;;;;;;10.13;2.77;;;;;;;8.36;45.73;97490.84;5039081;28;20202;-69
2023/03/15 07:05:21;;;;;;;11.00;3.40;;;;;;;8.39;45.66;97485.38;5032217;28;20207;-70
2023/03/15 07:07:47;;;;;;;12.87;3.57;;;;;;;8.36;46.28;97492.66;5035678;28;20211;-68
2023/03/15 07:10:12;;;;;;;8.87;4.00;;;;;;;8.54;45.49;97490.28;5033481;28;20180;-69
2023/03/15 07:12:37;;;;;;;10.07;3.13;;;;;;;8.45;44.96;97497.88;5041232;28;20725;-69
2023/03/15 07:15:03;;;;;;;9.73;3.60;;;;;;;8.29;46.12;97500.19;5043918;28;20263;-68
2023/03/15 07:17:28;;;;;;;7.63;3.50;;;;;;;8.29;45.55;97500.19;5032189;28;20214;-69
2023/03/15 07:19:54;;;;;;;11.27;3.10;;;;;;;8.27;44.99;97497.69;5039762;28;20187;-69
2023/03/15 07:22:21;;;;;;;8.03;3.20;;;;;;;8.14;45.66;97508.34;5035391;28;20270;-68
2023/03/15 07:24:47;;;;;;;4.87;2.70;;;;;;;8.08;45.90;97503.63;5033852;28;20186;-69
2023/03/15 07:27:13;;;;;;;7.70;2.90;;;;;;;8.06;45.33;97513.41;5037208;28;20804;-68
2023/03/15 07:29:39;;;;;;;10.60;3.00;;;;;;;8.02;45.73;97519.81;5035307;28;20433;-68
2023/03/15 07:32:04;;;;;;;6.80;3.10;;;;;;;7.94;45.90;97527.47;5041008;28;20439;-67
2023/03/15 07:34:30;;;;;;;10.63;3.33;;;;;;;7.87;46.51;97516.72;5035131;28;20203;-69
2023/03/15 07:36:55;;;;;;;9.63;3.07;;;;;;;7.87;46.37;97523.69;5046710;28;20250;-67
2023/03/15 07:39:22;;;;;;;7.63;3.53;;;;;;;7.84;50.32;97528.22;5031998;28;20175;-68
2023/03/15 07:41:47;;;;;;;9.27;2.87;;;;;;;7.82;47.52;97522.28;5033842;28;20263;-68
2023/03/15 07:44:13;;;;;;;4.90;2.87;;;;;;;7.90;46.93;97531.28;5041916;28;20896;-68
2023/03/15 07:46:38;;;;;;;8.50;3.00;;;;;;;7.79;46.63;97533.00;5036699;28;20686;-68
2023/03/15 07:49:04;;;;;;;6.23;3.13;;;;;;;7.67;48.46;97521.78;5043107;28;20183;-68
2023/03/15 07:51:29;;;;;;;4.50;2.63;;;;;;;7.83;48.29;97526.56;5034071;28;20203;-68
2023/03/15 07:53:55;;;;;;;8.23;2.80;;;;;;;7.85;47.53;97523.84;5041539;28;20176;-68
2023/03/15 07:56:20;;;;;;;5.40;2.60;;;;;;;7.60;47.16;97531.06;5043025;28;20178;-68
2023/03/15 07:58:46;;;;;;;8.97;2.97;;;;;;;7.74;47.57;97524.72;5038365;28;20203;-69
2023/03/15 08:01:11;;;;;;;4.27;2.53;;;;;;;7.70;47.08;97531.13;5041885;28;20191;-68
2023/03/15 08:03:36;;;;;;;11.57;3.10;;;;;;;7.51;46.76;97522.22;5041858;28;20234;-70
2023/03/15 08:06:02;;;;;;;8.70;2.80;;;;;;;7.77;46.88;97532.28;5048874;28;20179;-69
2023/03/15 08:08:27;;;;;;;7.13;2.70;;;;;;;7.73;46.69;97530.88;5043834;28;20845;-68
2023/03/15 08:10:54;;;;;;;10.03;2.90;;;;;;;7.96;46.69;97530.75;5021771;28;20665;-68
2023/03/15 08:13:20;;;;;;;7.47;2.60;;;;;;;8.31;46.30;97534.81;5049314;28;20594;-68
2023/03/15 08:15:46;;;;;;;7.60;2.57;;;;;;;8.62;45.70;97529.63;5042151;28;20421;-68
2023/03/15 08:18:12;;;;;;;4.40;2.27;;;;;;;8.93;45.71;97526.97;5034205;28;20776;-68
2023/03/15 08:20:37;;;;;;;8.27;2.73;;;;;;;9.37;45.04;97530.06;5040796;28;20526;-69
2023/03/15 08:23:02;;;;;;;3.47;2.07;;;;;;;9.44;43.40;97529.53;5032780;28;20290;-69
2023/03/15 08:25:28;;;;;;;5.40;2.07;;;;;;;9.75;42.90;97524.97;5037752;28;20266;-68
2023/03/15 08:27:53;;;;;;;5.47;2.50;;;;;;;10.04;42.60;97525.88;5037523;28;20196;-69
2023/03/15 08:30:20;;;;;;;6.80;2.00;;;;;;;10.31;41.85;97530.34;5035027;28;20715;-68
2023/03/15 08:32:46;;;;;;;5.43;2.10;;;;;;;10.19;41.64;97528.88;5041552;28;20270;-69
2023/03/15 08:35:13;;;;;;;12.23;2.20;;;;;;;10.45;39.89;97531.75;5035291;28;20425;-69
2023/03/15 08:37:39;;;;;;;16.10;2.30;;;;;;;11.00;39.76;97530.09;5043466;28;21088;-70
2023/03/15 08:40:10;;;;;;;4.23;1.90;;;;;;;10.71;38.72;97533.69;5043149;28;20493;-70
2023/03/15 08:42:38;;;;;;;3.70;1.90;;;;;;;10.98;38.02;97529.41;5049238;28;20558;-68
2023/03/15 08:45:05;;;;;;;6.53;2.43;;;;;;;11.24;38.27;97539.19;5039880;28;20480;-69
2023/03/15 08:47:34;;;;;;;6.87;2.03;;;;;;;11.40;37.61;97531.50;5044489;28;20433;-68
2023/03/15 08:50:04;;;;;;;8.10;2.47;;;;;;;11.43;36.92;97527.72;5037370;28;20800;-69
2023/03/15 08:52:30;;;;;;;7.80;1.70;;;;;;;11.67;36.98;97542.88;5050275;28;20422;-71
2023/03/15 08:54:56;;;;;;;4.53;2.00;;;;;;;11.81;36.16;97533.63;5042408;28;20458;-70
2023/03/15 08:57:24;;;;;;;4.43;2.10;;;;;;;11.68;36.77;97541.91;5036812;28;20485;-70
2023/03/15 08:59:50;;;;;;;7.80;2.30;;;;;;;11.49;36.92;97532.41;5033083;28;20210;-69
2023/03/15 09:02:16;;;;;;;4.40;1.90;;;;;;;11.47;37.42;97543.03;5034677;28;20473;-69
2023/03/15 09:04:41;;;;;;;7.53;1.80;;;;;;;11.56;37.70;97548.38;5035233;28;20975;-68
2023/03/15 09:07:07;;;;;;;5.87;1.87;;;;;;;11.55;37.09;97549.34;5035401;28;20334;-69
2023/03/15 09:09:32;;;;;;;11.23;2.20;;;;;;;11.52;36.60;97555.72;5034824;28;20200;-68
2023/03/15 09:11:58;;;;;;;6.47;2.80;;;;;;;11.66;36.87;97554.38;5036167;28;20184;-69
2023/03/15 09:14:23;;;;;;;6.10;2.40;;;;;;;11.70;36.83;97547.84;5043937;28;20717;-69
2023/03/15 09:16:49;;;;;;;3.63;2.07;;;;;;;11.67;36.25;97558.63;5046301;28;20183;-68
2023/03/15 09:19:14;;;;;;;4.87;2.13;;;;;;;11.74;36.46;97559.66;5043155;28;20255;-69
2023/03/15 09:21:40;;;;;;;12.00;2.17;;;;;;;11.93;36.67;97557.88;5013268;28;20674;-69
2023/03/15 09:24:05;;;;;;;9.67;2.53;;;;;;;11.25;35.41;97562.66;5032212;28;20591;-69
2023/03/15 09:26:31;;;;;;;7.13;2.03;;;;;;;11.31;36.03;97567.31;5052475;28;20178;-69
2023/03/15 09:28:56;;;;;;;6.87;2.03;;;;;;;10.66;37.08;97572.63;5040698;28;20203;-70
2023/03/15 09:31:23;;;;;;;4.63;2.17;;;;;;;10.81;37.38;97579.06;5033873;28;20274;-69
2023/03/15 09:33:49;;;;;;;3.83;1.87;;;;;;;10.24;38.16;97574.63;5047634;28;20194;-69
2023/03/15 09:36:14;;;;;;;3.27;1.80;;;;;;;10.25;37.89;97578.91;5041059;28;20426;-70
2023/03/15 09:38:41;;;;;;;4.23;2.03;;;;;;;10.31;38.46;97572.28;5053627;28;20205;-70
2023/03/15 09:41:17;;;;;;;5.47;2.00;;;;;;;10.27;38.76;97586.63;5036611;28;20179;-70
2023/03/15 09:43:53;;;;;;;7.53;2.33;;;;;;;10.12;39.12;97579.22;5054760;28;20589;-69
2023/03/15 09:46:29;;;;;;;6.90;2.07;;;;;;;10.05;39.28;97577.28;5029795;28;20514;-69
2023/03/15 09:49:14;;;;;;;4.03;2.13;;;;;;;9.95;39.55;97574.69;5044117;28;20437;-69
2023/03/15 09:51:47;;;;;;;4.60;1.90;;;;;;;9.89;39.68;97578.69;5035158;28;20418;-70
2023/03/15 09:54:28;;;;;;;6.60;2.43;;;;;;;9.89;38.76;97589.16;5024280;28;20430;-69
2023/03/15 09:56:53;;;;;;;6.07;2.23;;;;;;;10.03;38.77;97585.28;5040641;28;20429;-70
2023/03/15 09:59:21;;;;;;;9.70;2.40;;;;;;;10.08;38.54;97588.31;5045479;28;20491;-70
2023/03/15 10:01:47;;;;;;;3.80;1.63;;;;;;;10.10;38.65;97585.53;5039830;28;20184;-69
2023/03/15 10:04:22;;;;;;;3.87;1.80;;;;;;;9.88;38.24;97587.50;5048439;28;20465;-69
2023/03/15 10:06:53;;;;;;;6.20;1.90;;;;;;;10.06;38.43;97590.22;5049278;28;20953;-70
2023/03/15 10:09:21;;;;;;;2.50;1.57;;;;;;;10.28;38.31;97581.25;5050097;28;20472;-69
2023/03/15 10:11:58;;;;;;;4.80;1.97;;;;;;;10.50;37.71;97575.84;5036672;28;20438;-71
2023/03/15 10:14:43;;;;;;;3.10;1.30;;;;;;;10.77;37.94;97577.69;5040623;28;20843;-70
2023/03/15 10:17:22;;;;;;;4.47;1.63;;;;;;;11.07;36.84;97573.13;5038551;28;20441;-69
2023/03/15 10:19:49;;;;;;;3.40;1.77;;;;;;;11.08;35.70;97569.53;5021422;28;20411;-69
2023/03/15 10:22:35;;;;;;;6.73;1.70;;;;;;;11.10;35.90;97583.31;5032003;28;20435;-68
2023/03/15 10:25:22;;;;;;;3.07;1.40;;;;;;;11.44;36.46;97579.25;5036678;28;20724;-70
2023/03/15 10:28:14;;;;;;;5.83;1.03;;;;;;;11.52;35.90;97572.28;5036631;28;20951;-69
2023/03/15 10:30:45;;;;;;;2.70;1.30;;;;;;;11.68;35.17;97568.16;5032665;28;20433;-69
2023/03/15 10:33:29;;;;;;;7.60;1.77;;;;;;;11.64;35.00;97574.69;5033844;28;20457;-69
2023/03/15 10:35:54;;;;;;;2.13;1.10;;;;;;;12.10;34.85;97566.72;5032655;28;20431;-71
2023/03/15 10:38:22;;;;;;;4.00;1.57;;;;;;;12.70;34.08;97567.75;5039906;28;20449;-70
2023/03/15 10:40:56;;;;;;;2.57;1.30;;;;;;;13.16;32.46;97567.44;5040334;28;20182;-70
2023/03/15 10:43:36;;;;;;;4.13;1.20;;;;;;;13.03;32.27;97560.81;5033558;28;20460;-70
2023/03/15 10:46:03;;;;;;;6.50;1.43;;;;;;;13.45;32.49;97561.78;5035694;28;20524;-69
2023/03/15 10:48:55;;;;;;;3.93;1.27;;;;;;;13.21;31.72;97563.34;5038780;28;20972;-70
2023/03/15 10:51:30;;;;;;;7.80;1.40;;;;;;;13.73;31.64;97550.13;5038539;28;20466;-70
2023/03/15 10:54:05;;;;;;;5.20;1.70;;;;;;;13.91;32.16;97547.34;5033886;28;20422;-69
2023/03/15 10:56:34;;;;;;;5.73;1.70;;;;;;;13.23;32.56;97559.72;5044042;28;20517;-70
2023/03/15 10:59:00;;;;;;;7.80;4.03;;;;;;;13.87;32.55;97544.19;5036313;28;20533;-69
2023/03/15 11:01:36;;;;;;;3.00;1.30;;;;;;;13.70;32.25;97553.91;5032297;28;20505;-68
2023/03/15 11:04:01;;;;;;;4.70;1.30;;;;;;;13.66;31.25;97556.03;5054745;28;20465;-68
2023/03/15 11:06:27;;;;;;;5.20;1.07;;;;;;;13.60;31.15;97555.88;5064923;28;20436;-69
2023/03/15 11:09:07;;;;;;;3.57;1.43;;;;;;;13.37;32.42;97561.72;5045997;28;20193;-70
2023/03/15 11:11:56;;;;;;;3.77;1.47;;;;;;;13.19;33.02;97559.22;5032714;28;20448;-69
2023/03/15 11:14:21;;;;;;;3.17;1.53;;;;;;;12.80;33.08;97559.75;5043276;28;20907;-68
2023/03/15 11:16:53;;;;;;;6.47;1.30;;;;;;;12.27;32.98;97552.72;5031451;28;20426;-68
2023/03/15 11:19:21;;;;;;;1.83;1.40;;;;;;;11.98;33.71;97555.63;5032972;28;20187;-71
2023/03/15 11:21:48;;;;;;;2.60;1.30;;;;;;;11.92;33.99;97557.03;5032718;28;20945;-69
2023/03/15 11:24:24;;;;;;;3.57;1.33;;;;;;;11.90;34.47;97563.41;5034563;28;20533;-68
2023/03/15 11:26:52;;;;;;;5.20;1.70;;;;;;;11.84;34.71;97565.66;5035072;28;20465;-69
2023/03/15 11:29:25;;;;;;;2.37;1.20;;;;;;;11.66;34.10;97551.75;5041569;28;20445;-68
2023/03/15 11:31:51;;;;;;;4.30;1.43;;;;;;;11.77;34.76;97551.50;5036701;28;20500;-69
2023/03/15 11:34:35;;;;;;;1.67;1.00;;;;;;;11.84;34.60;97549.91;5036234;28;20417;-69
2023/03/15 11:37:04;;;;;;;7.43;1.27;;;;;;;11.83;33.42;97543.03;5034957;28;20442;-69
2023/03/15 11:39:50;;;;;;;5.33;1.20;;;;;;;11.78;34.46;97542.66;5038007;28;20415;-67
2023/03/15 11:42:28;;;;;;;4.17;1.50;;;;;;;11.78;34.55;97545.28;5039997;28;21005;-69